Smithfield, North Carolina
Current Conditions -  °F | °C
As of 1:35 PM on Thursday 23 Oct 2014 (Local Time) from KJNX Reporting Station
Clear Clear  
Wind Chill: 66°   Ceiling: Unl
Heat Index: 66°   Visibility: 10mi
Dew Point: 43°   Wind: 3mph
Humidity: 43%   Direction: 290°WNW
Pressure: 29.96"   Gusts: NA
Location:  35.51°N, 78.35°W
Report Text: KJNX 231735Z AUTO 29003KT 10SM CLR 19/06 A2996 RMK AO2
Loading
Personal Weather Stations






























Interactive Weather Map
Tropical Storm Tracking
New forecast layout! Learn more

10-Day Weather Forecast

Advertisements
Track Severe Weather on mobile